sensor_id;sensor_type;location;lat;lon;timestamp;P1;durP1;ratioP1;P2;durP2;ratioP2
5696;SDS011;2873;50.966;7.210;2023-02-24T00:01:14;49.80;;;21.33;;
5696;SDS011;2873;50.966;7.210;2023-02-24T00:03:49;51.33;;;22.00;;
5696;SDS011;2873;50.966;7.210;2023-02-24T00:06:25;53.97;;;21.60;;
5696;SDS011;2873;50.966;7.210;2023-02-24T00:09:11;56.67;;;22.70;;
5696;SDS011;2873;50.966;7.210;2023-02-24T00:11:44;57.85;;;24.38;;
5696;SDS011;2873;50.966;7.210;2023-02-24T00:14:20;56.30;;;23.15;;
5696;SDS011;2873;50.966;7.210;2023-02-24T00:16:47;51.00;;;22.85;;
5696;SDS011;2873;50.966;7.210;2023-02-24T00:19:17;52.38;;;22.75;;
5696;SDS011;2873;50.966;7.210;2023-02-24T00:21:44;53.03;;;22.38;;
5696;SDS011;2873;50.966;7.210;2023-02-24T00:24:11;53.97;;;23.35;;
5696;SDS011;2873;50.966;7.210;2023-02-24T00:26:36;52.70;;;22.03;;
5696;SDS011;2873;50.966;7.210;2023-02-24T00:29:06;55.40;;;23.40;;
5696;SDS011;2873;50.966;7.210;2023-02-24T00:31:34;54.67;;;23.67;;
5696;SDS011;2873;50.966;7.210;2023-02-24T00:34:03;53.67;;;22.65;;
5696;SDS011;2873;50.966;7.210;2023-02-24T00:36:30;56.95;;;24.70;;
5696;SDS011;2873;50.966;7.210;2023-02-24T00:38:58;61.50;;;24.30;;
5696;SDS011;2873;50.966;7.210;2023-02-24T00:41:29;60.60;;;24.27;;
5696;SDS011;2873;50.966;7.210;2023-02-24T00:43:56;54.23;;;23.73;;
5696;SDS011;2873;50.966;7.210;2023-02-24T00:46:30;55.65;;;23.05;;
5696;SDS011;2873;50.966;7.210;2023-02-24T00:48:59;50.45;;;22.95;;
5696;SDS011;2873;50.966;7.210;2023-02-24T00:51:30;53.23;;;23.97;;
5696;SDS011;2873;50.966;7.210;2023-02-24T00:54:01;59.75;;;22.50;;
5696;SDS011;2873;50.966;7.210;2023-02-24T00:56:26;55.83;;;22.40;;
5696;SDS011;2873;50.966;7.210;2023-02-24T00:58:53;51.20;;;22.40;;
5696;SDS011;2873;50.966;7.210;2023-02-24T01:01:22;49.15;;;21.13;;
5696;SDS011;2873;50.966;7.210;2023-02-24T01:03:50;45.88;;;21.15;;
5696;SDS011;2873;50.966;7.210;2023-02-24T01:06:19;54.53;;;23.17;;
5696;SDS011;2873;50.966;7.210;2023-02-24T01:08:46;64.50;;;25.58;;
5696;SDS011;2873;50.966;7.210;2023-02-24T01:11:14;56.30;;;26.08;;
5696;SDS011;2873;50.966;7.210;2023-02-24T01:14:03;59.55;;;27.17;;
5696;SDS011;2873;50.966;7.210;2023-02-24T01:16:30;58.15;;;27.70;;
5696;SDS011;2873;50.966;7.210;2023-02-24T01:18:56;56.50;;;26.77;;
5696;SDS011;2873;50.966;7.210;2023-02-24T01:21:22;59.92;;;27.83;;
5696;SDS011;2873;50.966;7.210;2023-02-24T01:23:48;65.07;;;29.20;;
5696;SDS011;2873;50.966;7.210;2023-02-24T01:26:15;59.47;;;28.23;;
5696;SDS011;2873;50.966;7.210;2023-02-24T01:28:41;65.60;;;29.17;;
5696;SDS011;2873;50.966;7.210;2023-02-24T01:31:11;65.68;;;30.10;;
5696;SDS011;2873;50.966;7.210;2023-02-24T01:33:39;65.97;;;29.63;;
5696;SDS011;2873;50.966;7.210;2023-02-24T01:36:09;66.85;;;29.45;;
5696;SDS011;2873;50.966;7.210;2023-02-24T01:38:37;63.80;;;27.70;;
5696;SDS011;2873;50.966;7.210;2023-02-24T01:41:06;61.20;;;27.77;;
5696;SDS011;2873;50.966;7.210;2023-02-24T01:43:32;61.03;;;27.58;;
5696;SDS011;2873;50.966;7.210;2023-02-24T01:46:18;63.10;;;28.08;;
5696;SDS011;2873;50.966;7.210;2023-02-24T01:48:47;54.13;;;25.70;;
5696;SDS011;2873;50.966;7.210;2023-02-24T01:51:17;65.53;;;27.33;;
5696;SDS011;2873;50.966;7.210;2023-02-24T01:53:42;65.73;;;26.80;;
5696;SDS011;2873;50.966;7.210;2023-02-24T01:56:09;58.50;;;25.42;;
5696;SDS011;2873;50.966;7.210;2023-02-24T01:58:38;54.65;;;23.10;;
5696;SDS011;2873;50.966;7.210;2023-02-24T02:01:05;53.10;;;22.48;;
5696;SDS011;2873;50.966;7.210;2023-02-24T02:03:34;45.75;;;22.10;;
5696;SDS011;2873;50.966;7.210;2023-02-24T02:06:06;54.83;;;21.60;;
5696;SDS011;2873;50.966;7.210;2023-02-24T02:08:35;53.90;;;22.60;;
5696;SDS011;2873;50.966;7.210;2023-02-24T02:11:03;47.15;;;21.92;;
5696;SDS011;2873;50.966;7.210;2023-02-24T02:13:32;53.67;;;23.40;;
5696;SDS011;2873;50.966;7.210;2023-02-24T02:16:12;49.08;;;20.83;;
5696;SDS011;2873;50.966;7.210;2023-02-24T02:24:37;43.00;;;18.70;;
5696;SDS011;2873;50.966;7.210;2023-02-24T02:29:50;38.50;;;17.90;;
5696;SDS011;2873;50.966;7.210;2023-02-24T02:35:45;38.35;;;17.73;;
5696;SDS011;2873;50.966;7.210;2023-02-24T02:39:14;43.90;;;18.45;;
5696;SDS011;2873;50.966;7.210;2023-02-24T02:41:35;39.85;;;18.10;;
5696;SDS011;2873;50.966;7.210;2023-02-24T02:44:31;39.80;;;18.02;;
5696;SDS011;2873;50.966;7.210;2023-02-24T02:47:09;41.73;;;18.63;;
5696;SDS011;2873;50.966;7.210;2023-02-24T02:49:43;38.95;;;18.13;;
5696;SDS011;2873;50.966;7.210;2023-02-24T02:52:22;39.60;;;17.67;;
5696;SDS011;2873;50.966;7.210;2023-02-24T02:55:05;36.93;;;18.47;;
5696;SDS011;2873;50.966;7.210;2023-02-24T02:57:49;41.10;;;17.88;;
5696;SDS011;2873;50.966;7.210;2023-02-24T03:00:20;41.00;;;17.03;;
5696;SDS011;2873;50.966;7.210;2023-02-24T03:02:57;43.10;;;17.60;;
5696;SDS011;2873;50.966;7.210;2023-02-24T03:05:29;39.43;;;18.27;;
5696;SDS011;2873;50.966;7.210;2023-02-24T03:07:58;40.53;;;17.88;;
5696;SDS011;2873;50.966;7.210;2023-02-24T03:10:28;32.95;;;16.08;;
5696;SDS011;2873;50.966;7.210;2023-02-24T03:12:58;44.83;;;17.10;;
5696;SDS011;2873;50.966;7.210;2023-02-24T03:15:27;40.33;;;17.00;;
5696;SDS011;2873;50.966;7.210;2023-02-24T03:17:58;40.60;;;16.80;;
5696;SDS011;2873;50.966;7.210;2023-02-24T03:20:41;36.77;;;16.90;;
5696;SDS011;2873;50.966;7.210;2023-02-24T03:23:21;36.60;;;16.70;;
5696;SDS011;2873;50.966;7.210;2023-02-24T03:28:32;46.77;;;17.70;;
5696;SDS011;2873;50.966;7.210;2023-02-24T03:31:09;38.22;;;16.83;;
5696;SDS011;2873;50.966;7.210;2023-02-24T03:33:49;38.45;;;17.15;;
5696;SDS011;2873;50.966;7.210;2023-02-24T03:36:24;40.45;;;16.60;;
5696;SDS011;2873;50.966;7.210;2023-02-24T03:38:51;37.33;;;16.25;;
5696;SDS011;2873;50.966;7.210;2023-02-24T03:41:17;37.63;;;16.63;;
5696;SDS011;2873;50.966;7.210;2023-02-24T03:43:43;32.72;;;15.80;;
5696;SDS011;2873;50.966;7.210;2023-02-24T03:46:12;34.83;;;16.42;;
5696;SDS011;2873;50.966;7.210;2023-02-24T03:48:42;44.67;;;16.92;;
5696;SDS011;2873;50.966;7.210;2023-02-24T03:51:17;40.08;;;17.38;;
5696;SDS011;2873;50.966;7.210;2023-02-24T03:53:54;41.10;;;18.15;;
5696;SDS011;2873;50.966;7.210;2023-02-24T03:56:49;36.00;;;17.00;;
5696;SDS011;2873;50.966;7.210;2023-02-24T04:02:55;36.83;;;17.53;;
5696;SDS011;2873;50.966;7.210;2023-02-24T04:05:27;45.13;;;18.92;;
5696;SDS011;2873;50.966;7.210;2023-02-24T04:08:02;42.28;;;19.23;;
5696;SDS011;2873;50.966;7.210;2023-02-24T04:10:44;41.53;;;18.63;;
5696;SDS011;2873;50.966;7.210;2023-02-24T04:13:19;42.08;;;19.98;;
5696;SDS011;2873;50.966;7.210;2023-02-24T04:15:58;54.20;;;20.25;;
5696;SDS011;2873;50.966;7.210;2023-02-24T04:18:28;44.13;;;18.80;;
5696;SDS011;2873;50.966;7.210;2023-02-24T04:20:56;44.80;;;19.30;;
5696;SDS011;2873;50.966;7.210;2023-02-24T04:23:30;56.85;;;19.02;;
5696;SDS011;2873;50.966;7.210;2023-02-24T04:26:02;55.22;;;21.70;;
5696;SDS011;2873;50.966;7.210;2023-02-24T04:28:29;49.97;;;21.27;;
5696;SDS011;2873;50.966;7.210;2023-02-24T04:31:02;43.67;;;17.00;;
5696;SDS011;2873;50.966;7.210;2023-02-24T04:33:33;46.95;;;16.65;;
5696;SDS011;2873;50.966;7.210;2023-02-24T04:36:00;42.08;;;15.63;;
5696;SDS011;2873;50.966;7.210;2023-02-24T04:38:25;36.13;;;15.80;;
5696;SDS011;2873;50.966;7.210;2023-02-24T04:40:51;40.83;;;14.68;;
5696;SDS011;2873;50.966;7.210;2023-02-24T04:43:17;38.43;;;14.27;;
5696;SDS011;2873;50.966;7.210;2023-02-24T04:45:43;38.35;;;14.88;;
5696;SDS011;2873;50.966;7.210;2023-02-24T04:48:09;43.13;;;13.43;;
5696;SDS011;2873;50.966;7.210;2023-02-24T04:50:38;35.40;;;12.10;;
5696;SDS011;2873;50.966;7.210;2023-02-24T04:53:10;33.08;;;10.90;;
5696;SDS011;2873;50.966;7.210;2023-02-24T04:55:41;35.58;;;11.70;;
5696;SDS011;2873;50.966;7.210;2023-02-24T04:58:13;37.13;;;10.60;;
5696;SDS011;2873;50.966;7.210;2023-02-24T05:00:43;30.65;;;9.70;;
5696;SDS011;2873;50.966;7.210;2023-02-24T05:03:11;29.08;;;8.20;;
5696;SDS011;2873;50.966;7.210;2023-02-24T05:05:37;30.67;;;7.53;;
5696;SDS011;2873;50.966;7.210;2023-02-24T05:08:04;17.48;;;6.20;;
5696;SDS011;2873;50.966;7.210;2023-02-24T05:13:06;23.88;;;6.10;;
5696;SDS011;2873;50.966;7.210;2023-02-24T05:15:33;27.77;;;6.07;;
5696;SDS011;2873;50.966;7.210;2023-02-24T05:18:03;33.03;;;9.32;;
5696;SDS011;2873;50.966;7.210;2023-02-24T05:20:36;20.97;;;6.60;;
5696;SDS011;2873;50.966;7.210;2023-02-24T05:23:25;22.00;;;5.40;;
5696;SDS011;2873;50.966;7.210;2023-02-24T05:25:59;23.20;;;5.30;;
5696;SDS011;2873;50.966;7.210;2023-02-24T05:28:26;22.15;;;5.20;;
5696;SDS011;2873;50.966;7.210;2023-02-24T05:31:02;16.20;;;4.70;;
5696;SDS011;2873;50.966;7.210;2023-02-24T05:33:33;21.92;;;4.70;;
5696;SDS011;2873;50.966;7.210;2023-02-24T05:36:05;27.80;;;5.50;;
5696;SDS011;2873;50.966;7.210;2023-02-24T05:38:33;16.33;;;4.32;;
5696;SDS011;2873;50.966;7.210;2023-02-24T05:41:08;19.30;;;4.50;;
5696;SDS011;2873;50.966;7.210;2023-02-24T05:43:45;21.85;;;4.90;;
5696;SDS011;2873;50.966;7.210;2023-02-24T05:46:17;21.67;;;5.15;;
5696;SDS011;2873;50.966;7.210;2023-02-24T05:48:43;26.97;;;5.50;;
5696;SDS011;2873;50.966;7.210;2023-02-24T05:51:10;19.40;;;4.63;;
5696;SDS011;2873;50.966;7.210;2023-02-24T05:53:39;21.00;;;4.57;;
5696;SDS011;2873;50.966;7.210;2023-02-24T05:56:05;20.55;;;4.70;;
5696;SDS011;2873;50.966;7.210;2023-02-24T05:58:32;21.73;;;4.20;;
5696;SDS011;2873;50.966;7.210;2023-02-24T06:00:58;26.77;;;4.60;;
5696;SDS011;2873;50.966;7.210;2023-02-24T06:03:30;30.48;;;5.60;;
5696;SDS011;2873;50.966;7.210;2023-02-24T06:05:59;23.08;;;5.70;;
5696;SDS011;2873;50.966;7.210;2023-02-24T06:08:29;21.40;;;4.68;;
5696;SDS011;2873;50.966;7.210;2023-02-24T06:11:06;24.75;;;5.38;;
5696;SDS011;2873;50.966;7.210;2023-02-24T06:13:35;28.40;;;5.20;;
5696;SDS011;2873;50.966;7.210;2023-02-24T06:16:01;24.33;;;5.67;;
5696;SDS011;2873;50.966;7.210;2023-02-24T06:18:27;23.55;;;4.75;;
5696;SDS011;2873;50.966;7.210;2023-02-24T06:20:53;22.70;;;4.67;;
5696;SDS011;2873;50.966;7.210;2023-02-24T06:23:18;24.55;;;5.70;;
5696;SDS011;2873;50.966;7.210;2023-02-24T06:25:44;20.60;;;5.10;;
5696;SDS011;2873;50.966;7.210;2023-02-24T06:28:09;18.43;;;5.70;;
5696;SDS011;2873;50.966;7.210;2023-02-24T06:30:35;21.27;;;5.47;;
5696;SDS011;2873;50.966;7.210;2023-02-24T06:33:01;17.42;;;5.20;;
5696;SDS011;2873;50.966;7.210;2023-02-24T06:35:29;26.95;;;5.68;;
5696;SDS011;2873;50.966;7.210;2023-02-24T06:37:56;25.20;;;6.17;;
5696;SDS011;2873;50.966;7.210;2023-02-24T06:40:22;24.35;;;5.20;;
5696;SDS011;2873;50.966;7.210;2023-02-24T06:42:50;24.88;;;5.60;;
5696;SDS011;2873;50.966;7.210;2023-02-24T06:45:19;20.17;;;5.22;;
5696;SDS011;2873;50.966;7.210;2023-02-24T06:47:46;24.30;;;5.50;;
5696;SDS011;2873;50.966;7.210;2023-02-24T06:50:13;26.63;;;5.57;;
5696;SDS011;2873;50.966;7.210;2023-02-24T06:52:44;27.60;;;6.35;;
5696;SDS011;2873;50.966;7.210;2023-02-24T06:55:13;33.05;;;6.00;;
5696;SDS011;2873;50.966;7.210;2023-02-24T06:57:59;29.98;;;6.80;;
5696;SDS011;2873;50.966;7.210;2023-02-24T07:00:30;21.80;;;6.15;;
5696;SDS011;2873;50.966;7.210;2023-02-24T07:03:07;24.43;;;5.50;;
5696;SDS011;2873;50.966;7.210;2023-02-24T07:05:44;24.08;;;6.53;;
5696;SDS011;2873;50.966;7.210;2023-02-24T07:08:18;23.65;;;6.45;;
5696;SDS011;2873;50.966;7.210;2023-02-24T07:10:56;22.43;;;6.43;;
5696;SDS011;2873;50.966;7.210;2023-02-24T07:13:24;24.73;;;6.20;;
5696;SDS011;2873;50.966;7.210;2023-02-24T07:15:52;17.08;;;6.35;;
5696;SDS011;2873;50.966;7.210;2023-02-24T07:18:18;26.60;;;6.60;;
5696;SDS011;2873;50.966;7.210;2023-02-24T07:20:44;22.23;;;6.30;;
5696;SDS011;2873;50.966;7.210;2023-02-24T07:23:11;24.17;;;6.20;;
5696;SDS011;2873;50.966;7.210;2023-02-24T07:25:38;28.07;;;6.77;;
5696;SDS011;2873;50.966;7.210;2023-02-24T07:28:05;24.33;;;6.30;;
5696;SDS011;2873;50.966;7.210;2023-02-24T07:30:31;23.42;;;6.22;;
5696;SDS011;2873;50.966;7.210;2023-02-24T07:32:57;26.03;;;6.90;;
5696;SDS011;2873;50.966;7.210;2023-02-24T07:35:24;17.88;;;6.32;;
5696;SDS011;2873;50.966;7.210;2023-02-24T07:37:50;31.92;;;6.28;;
5696;SDS011;2873;50.966;7.210;2023-02-24T07:40:16;23.52;;;7.35;;
5696;SDS011;2873;50.966;7.210;2023-02-24T07:42:42;21.85;;;6.47;;
5696;SDS011;2873;50.966;7.210;2023-02-24T07:45:11;24.15;;;7.20;;
5696;SDS011;2873;50.966;7.210;2023-02-24T07:47:37;23.23;;;7.80;;
5696;SDS011;2873;50.966;7.210;2023-02-24T07:50:05;26.20;;;6.50;;
5696;SDS011;2873;50.966;7.210;2023-02-24T07:52:34;27.60;;;7.90;;
5696;SDS011;2873;50.966;7.210;2023-02-24T07:55:00;20.17;;;6.38;;
5696;SDS011;2873;50.966;7.210;2023-02-24T07:57:27;27.73;;;7.80;;
5696;SDS011;2873;50.966;7.210;2023-02-24T07:59:52;21.63;;;7.10;;
5696;SDS011;2873;50.966;7.210;2023-02-24T08:02:18;26.85;;;7.10;;
5696;SDS011;2873;50.966;7.210;2023-02-24T08:04:44;26.63;;;7.30;;
5696;SDS011;2873;50.966;7.210;2023-02-24T08:07:14;24.73;;;6.80;;
5696;SDS011;2873;50.966;7.210;2023-02-24T08:09:41;25.40;;;6.13;;
5696;SDS011;2873;50.966;7.210;2023-02-24T08:12:13;18.35;;;6.18;;
5696;SDS011;2873;50.966;7.210;2023-02-24T08:14:42;22.08;;;4.57;;
5696;SDS011;2873;50.966;7.210;2023-02-24T08:17:09;24.58;;;5.85;;
5696;SDS011;2873;50.966;7.210;2023-02-24T08:19:36;17.85;;;4.97;;
5696;SDS011;2873;50.966;7.210;2023-02-24T08:22:09;18.20;;;4.60;;
5696;SDS011;2873;50.966;7.210;2023-02-24T08:27:14;16.83;;;4.50;;
5696;SDS011;2873;50.966;7.210;2023-02-24T08:29:51;18.85;;;3.70;;
5696;SDS011;2873;50.966;7.210;2023-02-24T08:34:50;11.40;;;2.90;;
5696;SDS011;2873;50.966;7.210;2023-02-24T08:37:20;15.30;;;3.10;;
5696;SDS011;2873;50.966;7.210;2023-02-24T08:39:47;12.45;;;2.80;;
5696;SDS011;2873;50.966;7.210;2023-02-24T08:42:17;17.80;;;2.92;;
5696;SDS011;2873;50.966;7.210;2023-02-24T08:44:44;15.23;;;3.70;;
5696;SDS011;2873;50.966;7.210;2023-02-24T08:47:10;16.40;;;3.30;;
5696;SDS011;2873;50.966;7.210;2023-02-24T08:49:37;14.90;;;3.30;;
5696;SDS011;2873;50.966;7.210;2023-02-24T08:52:04;13.40;;;3.30;;
5696;SDS011;2873;50.966;7.210;2023-02-24T08:54:31;18.10;;;2.60;;
5696;SDS011;2873;50.966;7.210;2023-02-24T08:56:57;13.05;;;2.40;;
5696;SDS011;2873;50.966;7.210;2023-02-24T08:59:32;12.75;;;2.42;;
5696;SDS011;2873;50.966;7.210;2023-02-24T09:02:03;15.75;;;2.60;;
5696;SDS011;2873;50.966;7.210;2023-02-24T09:04:51;16.08;;;2.40;;
5696;SDS011;2873;50.966;7.210;2023-02-24T09:07:23;13.13;;;2.60;;
5696;SDS011;2873;50.966;7.210;2023-02-24T09:09:59;19.80;;;2.83;;
5696;SDS011;2873;50.966;7.210;2023-02-24T09:12:45;13.88;;;2.55;;
5696;SDS011;2873;50.966;7.210;2023-02-24T09:15:13;11.63;;;2.20;;
5696;SDS011;2873;50.966;7.210;2023-02-24T09:17:42;14.73;;;3.00;;
5696;SDS011;2873;50.966;7.210;2023-02-24T09:22:54;8.55;;;2.00;;
5696;SDS011;2873;50.966;7.210;2023-02-24T09:25:27;14.70;;;2.38;;
5696;SDS011;2873;50.966;7.210;2023-02-24T09:28:14;16.17;;;2.70;;
5696;SDS011;2873;50.966;7.210;2023-02-24T09:30:55;17.52;;;2.88;;
5696;SDS011;2873;50.966;7.210;2023-02-24T09:38:54;22.08;;;3.35;;
5696;SDS011;2873;50.966;7.210;2023-02-24T09:47:19;12.02;;;3.60;;
5696;SDS011;2873;50.966;7.210;2023-02-24T09:52:52;9.43;;;3.30;;
5696;SDS011;2873;50.966;7.210;2023-02-24T10:00:57;17.60;;;4.82;;
5696;SDS011;2873;50.966;7.210;2023-02-24T10:06:32;12.55;;;5.10;;
5696;SDS011;2873;50.966;7.210;2023-02-24T10:09:22;13.55;;;5.00;;
5696;SDS011;2873;50.966;7.210;2023-02-24T10:12:13;13.93;;;4.90;;
5696;SDS011;2873;50.966;7.210;2023-02-24T10:14:47;14.02;;;4.97;;
5696;SDS011;2873;50.966;7.210;2023-02-24T10:17:39;14.60;;;5.50;;
5696;SDS011;2873;50.966;7.210;2023-02-24T10:23:14;14.50;;;5.20;;
5696;SDS011;2873;50.966;7.210;2023-02-24T10:25:54;16.58;;;5.10;;
5696;SDS011;2873;50.966;7.210;2023-02-24T10:28:48;11.63;;;5.50;;
5696;SDS011;2873;50.966;7.210;2023-02-24T10:31:26;12.95;;;5.30;;
5696;SDS011;2873;50.966;7.210;2023-02-24T10:34:00;12.13;;;4.90;;
5696;SDS011;2873;50.966;7.210;2023-02-24T10:36:30;10.03;;;4.60;;
5696;SDS011;2873;50.966;7.210;2023-02-24T10:39:01;11.30;;;4.60;;
5696;SDS011;2873;50.966;7.210;2023-02-24T10:41:40;19.20;;;5.32;;
5696;SDS011;2873;50.966;7.210;2023-02-24T10:44:09;13.25;;;4.47;;
5696;SDS011;2873;50.966;7.210;2023-02-24T10:46:36;18.85;;;5.15;;
5696;SDS011;2873;50.966;7.210;2023-02-24T10:49:03;16.90;;;6.43;;
5696;SDS011;2873;50.966;7.210;2023-02-24T10:54:11;15.98;;;5.45;;
5696;SDS011;2873;50.966;7.210;2023-02-24T10:56:47;12.90;;;4.55;;
5696;SDS011;2873;50.966;7.210;2023-02-24T10:59:44;11.25;;;4.57;;
5696;SDS011;2873;50.966;7.210;2023-02-24T11:02:23;12.82;;;5.18;;
5696;SDS011;2873;50.966;7.210;2023-02-24T11:04:58;11.40;;;5.10;;
5696;SDS011;2873;50.966;7.210;2023-02-24T11:07:25;12.70;;;4.60;;
5696;SDS011;2873;50.966;7.210;2023-02-24T11:10:15;16.45;;;4.75;;
5696;SDS011;2873;50.966;7.210;2023-02-24T11:12:56;13.70;;;5.20;;
5696;SDS011;2873;50.966;7.210;2023-02-24T11:15:44;12.40;;;4.63;;
5696;SDS011;2873;50.966;7.210;2023-02-24T11:18:31;16.70;;;5.47;;
5696;SDS011;2873;50.966;7.210;2023-02-24T11:20:58;14.38;;;5.10;;
5696;SDS011;2873;50.966;7.210;2023-02-24T11:23:28;13.23;;;5.47;;
5696;SDS011;2873;50.966;7.210;2023-02-24T11:25:59;12.38;;;4.95;;
5696;SDS011;2873;50.966;7.210;2023-02-24T11:34:21;14.67;;;5.80;;
5696;SDS011;2873;50.966;7.210;2023-02-24T11:37:24;10.67;;;4.90;;
5696;SDS011;2873;50.966;7.210;2023-02-24T11:42:47;11.63;;;4.75;;
5696;SDS011;2873;50.966;7.210;2023-02-24T11:48:03;16.13;;;5.20;;
5696;SDS011;2873;50.966;7.210;2023-02-24T11:50:44;18.20;;;5.18;;
5696;SDS011;2873;50.966;7.210;2023-02-24T11:53:33;10.02;;;4.85;;
5696;SDS011;2873;50.966;7.210;2023-02-24T11:56:17;9.52;;;4.38;;
5696;SDS011;2873;50.966;7.210;2023-02-24T11:59:09;11.18;;;4.60;;
5696;SDS011;2873;50.966;7.210;2023-02-24T12:09:53;8.07;;;4.80;;
5696;SDS011;2873;50.966;7.210;2023-02-24T12:12:39;14.00;;;5.20;;
5696;SDS011;2873;50.966;7.210;2023-02-24T12:15:23;14.13;;;5.47;;
5696;SDS011;2873;50.966;7.210;2023-02-24T12:23:34;10.75;;;4.75;;
5696;SDS011;2873;50.966;7.210;2023-02-24T12:37:14;12.85;;;5.30;;
5696;SDS011;2873;50.966;7.210;2023-02-24T12:45:16;11.00;;;4.60;;
5696;SDS011;2873;50.966;7.210;2023-02-24T12:53:33;16.40;;;4.50;;
5696;SDS011;2873;50.966;7.210;2023-02-24T12:56:20;20.50;;;4.88;;
5696;SDS011;2873;50.966;7.210;2023-02-24T12:58:50;16.58;;;4.90;;
5696;SDS011;2873;50.966;7.210;2023-02-24T13:04:17;18.23;;;5.30;;
5696;SDS011;2873;50.966;7.210;2023-02-24T13:06:51;13.82;;;5.70;;
5696;SDS011;2873;50.966;7.210;2023-02-24T13:12:32;14.85;;;5.90;;
5696;SDS011;2873;50.966;7.210;2023-02-24T13:15:14;19.38;;;5.95;;
5696;SDS011;2873;50.966;7.210;2023-02-24T13:17:50;14.27;;;6.10;;
5696;SDS011;2873;50.966;7.210;2023-02-24T13:20:28;14.02;;;6.03;;
5696;SDS011;2873;50.966;7.210;2023-02-24T13:22:55;16.00;;;5.78;;
5696;SDS011;2873;50.966;7.210;2023-02-24T13:25:33;10.38;;;6.00;;
5696;SDS011;2873;50.966;7.210;2023-02-24T13:28:21;17.50;;;6.95;;
5696;SDS011;2873;50.966;7.210;2023-02-24T13:30:59;19.40;;;6.50;;
5696;SDS011;2873;50.966;7.210;2023-02-24T13:38:38;15.40;;;6.30;;
5696;SDS011;2873;50.966;7.210;2023-02-24T13:43:58;13.27;;;6.97;;
5696;SDS011;2873;50.966;7.210;2023-02-24T13:46:51;15.82;;;6.70;;
5696;SDS011;2873;50.966;7.210;2023-02-24T13:55:17;20.20;;;6.88;;
5696;SDS011;2873;50.966;7.210;2023-02-24T13:58:03;13.23;;;7.55;;
5696;SDS011;2873;50.966;7.210;2023-02-24T14:03:24;16.30;;;7.28;;
5696;SDS011;2873;50.966;7.210;2023-02-24T14:05:51;15.73;;;7.50;;
5696;SDS011;2873;50.966;7.210;2023-02-24T14:08:19;18.03;;;8.10;;
5696;SDS011;2873;50.966;7.210;2023-02-24T14:10:50;13.98;;;7.35;;
5696;SDS011;2873;50.966;7.210;2023-02-24T14:13:21;18.17;;;8.13;;
5696;SDS011;2873;50.966;7.210;2023-02-24T14:15:51;20.92;;;8.40;;
5696;SDS011;2873;50.966;7.210;2023-02-24T14:18:20;17.55;;;7.93;;
5696;SDS011;2873;50.966;7.210;2023-02-24T14:20:48;18.05;;;8.20;;
5696;SDS011;2873;50.966;7.210;2023-02-24T14:25:56;19.67;;;8.20;;
5696;SDS011;2873;50.966;7.210;2023-02-24T14:28:26;17.40;;;8.15;;
5696;SDS011;2873;50.966;7.210;2023-02-24T14:30:55;17.45;;;7.65;;
5696;SDS011;2873;50.966;7.210;2023-02-24T14:33:27;15.98;;;8.35;;
5696;SDS011;2873;50.966;7.210;2023-02-24T14:35:53;20.42;;;7.80;;
5696;SDS011;2873;50.966;7.210;2023-02-24T14:38:29;22.42;;;9.00;;
5696;SDS011;2873;50.966;7.210;2023-02-24T14:40:58;20.02;;;8.35;;
5696;SDS011;2873;50.966;7.210;2023-02-24T14:43:26;18.02;;;8.10;;
5696;SDS011;2873;50.966;7.210;2023-02-24T14:45:53;17.03;;;8.37;;
5696;SDS011;2873;50.966;7.210;2023-02-24T14:48:28;17.87;;;7.90;;
5696;SDS011;2873;50.966;7.210;2023-02-24T14:51:00;17.23;;;7.13;;
5696;SDS011;2873;50.966;7.210;2023-02-24T14:53:31;19.35;;;7.30;;
5696;SDS011;2873;50.966;7.210;2023-02-24T14:55:59;17.17;;;6.32;;
5696;SDS011;2873;50.966;7.210;2023-02-24T15:01:04;15.00;;;5.65;;
5696;SDS011;2873;50.966;7.210;2023-02-24T15:03:46;17.33;;;5.43;;
5696;SDS011;2873;50.966;7.210;2023-02-24T15:06:22;11.63;;;5.00;;
5696;SDS011;2873;50.966;7.210;2023-02-24T15:08:56;12.52;;;4.90;;
5696;SDS011;2873;50.966;7.210;2023-02-24T15:11:27;18.27;;;6.10;;
5696;SDS011;2873;50.966;7.210;2023-02-24T15:13:56;9.10;;;5.00;;
5696;SDS011;2873;50.966;7.210;2023-02-24T15:16:25;14.23;;;5.47;;
5696;SDS011;2873;50.966;7.210;2023-02-24T15:18:56;12.50;;;5.72;;
5696;SDS011;2873;50.966;7.210;2023-02-24T15:21:36;18.85;;;7.50;;
5696;SDS011;2873;50.966;7.210;2023-02-24T15:24:25;16.33;;;6.70;;
5696;SDS011;2873;50.966;7.210;2023-02-24T15:29:28;19.85;;;8.00;;
5696;SDS011;2873;50.966;7.210;2023-02-24T15:31:56;16.73;;;6.70;;
5696;SDS011;2873;50.966;7.210;2023-02-24T15:34:27;19.93;;;6.17;;
5696;SDS011;2873;50.966;7.210;2023-02-24T15:36:56;15.60;;;6.93;;
5696;SDS011;2873;50.966;7.210;2023-02-24T15:39:26;17.25;;;8.38;;
5696;SDS011;2873;50.966;7.210;2023-02-24T15:42:05;25.42;;;11.43;;
5696;SDS011;2873;50.966;7.210;2023-02-24T15:44:32;29.80;;;13.80;;
5696;SDS011;2873;50.966;7.210;2023-02-24T15:46:59;25.20;;;10.85;;
5696;SDS011;2873;50.966;7.210;2023-02-24T15:49:43;21.75;;;8.93;;
5696;SDS011;2873;50.966;7.210;2023-02-24T15:52:08;24.13;;;11.45;;
5696;SDS011;2873;50.966;7.210;2023-02-24T15:54:35;11.93;;;6.90;;
5696;SDS011;2873;50.966;7.210;2023-02-24T15:57:03;15.23;;;7.72;;
5696;SDS011;2873;50.966;7.210;2023-02-24T15:59:30;19.15;;;7.40;;
5696;SDS011;2873;50.966;7.210;2023-02-24T16:01:56;21.23;;;7.60;;
5696;SDS011;2873;50.966;7.210;2023-02-24T16:04:21;15.93;;;8.45;;
5696;SDS011;2873;50.966;7.210;2023-02-24T16:06:48;20.63;;;8.18;;
5696;SDS011;2873;50.966;7.210;2023-02-24T16:09:25;17.75;;;8.73;;
5696;SDS011;2873;50.966;7.210;2023-02-24T16:12:01;20.95;;;8.85;;
5696;SDS011;2873;50.966;7.210;2023-02-24T16:14:29;18.70;;;8.90;;
5696;SDS011;2873;50.966;7.210;2023-02-24T16:16:55;16.33;;;8.00;;
5696;SDS011;2873;50.966;7.210;2023-02-24T16:19:21;17.98;;;8.30;;
5696;SDS011;2873;50.966;7.210;2023-02-24T16:21:46;10.10;;;8.10;;
5696;SDS011;2873;50.966;7.210;2023-02-24T16:24:12;18.10;;;8.10;;
5696;SDS011;2873;50.966;7.210;2023-02-24T16:26:38;16.83;;;7.20;;
5696;SDS011;2873;50.966;7.210;2023-02-24T16:29:04;23.38;;;9.73;;
5696;SDS011;2873;50.966;7.210;2023-02-24T16:31:35;21.08;;;8.57;;
5696;SDS011;2873;50.966;7.210;2023-02-24T16:34:02;15.73;;;8.38;;
5696;SDS011;2873;50.966;7.210;2023-02-24T16:36:28;18.85;;;8.07;;
5696;SDS011;2873;50.966;7.210;2023-02-24T16:38:55;18.73;;;8.40;;
5696;SDS011;2873;50.966;7.210;2023-02-24T16:41:21;21.23;;;7.80;;
5696;SDS011;2873;50.966;7.210;2023-02-24T16:43:47;18.70;;;7.68;;
5696;SDS011;2873;50.966;7.210;2023-02-24T16:46:14;19.60;;;7.20;;
5696;SDS011;2873;50.966;7.210;2023-02-24T16:48:43;16.95;;;7.97;;
5696;SDS011;2873;50.966;7.210;2023-02-24T16:51:11;14.77;;;7.90;;
5696;SDS011;2873;50.966;7.210;2023-02-24T16:53:37;20.30;;;7.90;;
5696;SDS011;2873;50.966;7.210;2023-02-24T16:56:02;16.27;;;7.75;;
5696;SDS011;2873;50.966;7.210;2023-02-24T16:58:29;21.17;;;8.35;;
5696;SDS011;2873;50.966;7.210;2023-02-24T17:00:56;19.70;;;8.55;;
5696;SDS011;2873;50.966;7.210;2023-02-24T17:03:25;20.80;;;8.85;;
5696;SDS011;2873;50.966;7.210;2023-02-24T17:05:57;18.60;;;8.35;;
5696;SDS011;2873;50.966;7.210;2023-02-24T17:08:22;16.15;;;8.38;;
5696;SDS011;2873;50.966;7.210;2023-02-24T17:10:48;19.43;;;8.40;;
5696;SDS011;2873;50.966;7.210;2023-02-24T17:13:17;18.05;;;9.60;;
5696;SDS011;2873;50.966;7.210;2023-02-24T17:15:43;12.43;;;7.90;;
5696;SDS011;2873;50.966;7.210;2023-02-24T17:18:09;20.58;;;10.18;;
5696;SDS011;2873;50.966;7.210;2023-02-24T17:20:36;18.35;;;9.68;;
5696;SDS011;2873;50.966;7.210;2023-02-24T17:23:03;21.55;;;10.20;;
5696;SDS011;2873;50.966;7.210;2023-02-24T17:25:30;20.15;;;10.43;;
5696;SDS011;2873;50.966;7.210;2023-02-24T17:27:56;22.10;;;10.60;;
5696;SDS011;2873;50.966;7.210;2023-02-24T17:30:23;19.48;;;10.57;;
5696;SDS011;2873;50.966;7.210;2023-02-24T17:32:51;20.17;;;10.17;;
5696;SDS011;2873;50.966;7.210;2023-02-24T17:35:17;22.77;;;10.85;;
5696;SDS011;2873;50.966;7.210;2023-02-24T17:37:43;18.27;;;11.13;;
5696;SDS011;2873;50.966;7.210;2023-02-24T17:40:08;23.80;;;11.30;;